createdAt,value
2018-12-02T00:00:21.521Z,19.00
2018-12-02T00:01:19.829Z,19.20
2018-12-02T00:02:22.250Z,18.90
2018-12-02T00:03:19.760Z,19.00
2018-12-02T00:04:27.843Z,19.00
2018-12-02T00:05:19.723Z,18.90
2018-12-02T00:06:19.712Z,18.80
2018-12-02T00:07:19.670Z,19.10
2018-12-02T00:08:20.364Z,18.70
2018-12-02T00:09:20.355Z,18.80
2018-12-02T00:10:19.674Z,19.20
2018-12-02T00:11:22.703Z,19.50
2018-12-02T00:12:19.680Z,19.60
2018-12-02T00:13:19.949Z,19.20
2018-12-02T00:14:19.625Z,19.20
2018-12-02T00:15:19.636Z,19.60
2018-12-02T00:16:19.693Z,19.50
2018-12-02T00:17:19.587Z,19.20
2018-12-02T00:18:19.675Z,19.10
2018-12-02T00:19:20.988Z,19.10
2018-12-02T00:20:19.666Z,19.60
2018-12-02T00:21:20.808Z,19.40
2018-12-02T00:22:21.726Z,18.60
2018-12-02T00:23:19.513Z,18.90
2018-12-02T00:24:19.800Z,18.80
2018-12-02T00:25:19.530Z,19.10
2018-12-02T00:26:20.184Z,19.30
2018-12-02T00:27:26.281Z,19.50
2018-12-02T00:28:19.509Z,19.70
2018-12-02T00:29:19.478Z,19.30
2018-12-02T00:30:19.478Z,19.00
2018-12-02T00:31:19.443Z,19.80
2018-12-02T00:32:19.438Z,19.50
2018-12-02T00:33:19.401Z,19.80
2018-12-02T00:34:19.465Z,19.10
2018-12-02T00:35:19.412Z,20.30
2018-12-02T00:36:20.270Z,19.60
2018-12-02T00:37:19.507Z,20.30
2018-12-02T00:38:19.384Z,19.40
2018-12-02T00:39:19.355Z,19.90
2018-12-02T00:40:19.391Z,19.30
2018-12-02T00:41:21.679Z,20.10
2018-12-02T00:42:19.314Z,20.00
2018-12-02T00:43:19.342Z,19.60
2018-12-02T00:44:19.634Z,19.20
2018-12-02T00:45:19.309Z,20.10
2018-12-02T00:46:19.293Z,20.10
2018-12-02T00:47:19.327Z,19.30
2018-12-02T00:48:19.313Z,19.90
2018-12-02T00:49:19.265Z,20.20
2018-12-02T00:50:19.291Z,19.90
2018-12-02T00:51:19.374Z,19.40
2018-12-02T00:52:19.314Z,19.60
2018-12-02T00:53:19.214Z,20.10
2018-12-02T00:54:19.178Z,19.90
2018-12-02T00:55:19.192Z,19.80
2018-12-02T00:56:20.685Z,19.40
2018-12-02T00:57:19.389Z,19.10
2018-12-02T00:58:19.187Z,19.50
2018-12-02T00:59:19.223Z,19.10
2018-12-02T01:00:19.167Z,19.00
2018-12-02T01:01:19.140Z,19.60
2018-12-02T01:02:19.111Z,19.50
2018-12-02T01:03:19.097Z,20.00
2018-12-02T01:04:19.176Z,19.80
2018-12-02T01:05:19.081Z,19.20
2018-12-02T01:06:19.082Z,19.20
2018-12-02T01:07:19.055Z,18.90
2018-12-02T01:08:19.133Z,19.20
2018-12-02T01:09:19.062Z,19.20
2018-12-02T01:10:19.060Z,20.10
2018-12-02T01:11:19.011Z,19.80
2018-12-02T01:12:18.997Z,19.00
2018-12-02T01:13:18.992Z,19.10
2018-12-02T01:14:19.844Z,19.90
2018-12-02T01:15:19.000Z,19.00
2018-12-02T01:16:18.958Z,18.90
2018-12-02T01:17:18.950Z,20.10
2018-12-02T01:18:18.963Z,19.70
2018-12-02T01:19:19.012Z,19.70
2018-12-02T01:20:18.970Z,19.50
2018-12-02T01:21:19.022Z,19.20
2018-12-02T01:22:18.919Z,19.20
2018-12-02T01:23:18.894Z,18.90
2018-12-02T01:24:18.887Z,19.60
2018-12-02T01:25:18.910Z,18.70
2018-12-02T01:26:18.891Z,18.70
2018-12-02T01:27:18.858Z,19.20
2018-12-02T01:28:18.981Z,18.30
2018-12-02T01:29:18.834Z,18.50
2018-12-02T01:30:18.851Z,19.30
2018-12-02T01:31:18.868Z,19.20
2018-12-02T01:32:18.888Z,18.60
2018-12-02T01:33:18.765Z,19.00
2018-12-02T01:34:19.036Z,19.20
2018-12-02T01:35:18.764Z,18.90
2018-12-02T01:36:18.757Z,18.50
2018-12-02T01:37:18.725Z,18.60
2018-12-02T01:38:18.746Z,18.70
2018-12-02T01:39:18.734Z,18.20
2018-12-02T01:40:18.689Z,18.40
2018-12-02T01:41:18.727Z,18.90
2018-12-02T01:42:18.690Z,18.80
2018-12-02T01:43:18.800Z,18.30
2018-12-02T01:44:18.796Z,18.80
2018-12-02T01:45:20.955Z,18.20
2018-12-02T01:46:18.633Z,18.00
2018-12-02T01:47:18.682Z,18.10
2018-12-02T01:48:18.671Z,18.50
2018-12-02T01:49:18.610Z,18.50
2018-12-02T01:50:18.587Z,18.50
2018-12-02T01:51:18.607Z,18.20
2018-12-02T01:52:19.128Z,18.10
2018-12-02T01:53:18.571Z,18.10
2018-12-02T01:54:18.623Z,18.10
2018-12-02T01:55:18.580Z,18.30
2018-12-02T01:56:18.641Z,17.40
2018-12-02T01:57:18.510Z,18.20
2018-12-02T01:58:18.748Z,18.10
2018-12-02T01:59:18.527Z,17.90
2018-12-02T02:00:18.539Z,18.10
2018-12-02T02:01:18.474Z,17.90
2018-12-02T02:02:18.500Z,17.60
2018-12-02T02:03:18.463Z,18.20
2018-12-02T02:04:18.483Z,18.10
2018-12-02T02:05:18.514Z,18.50
2018-12-02T02:06:18.417Z,18.00
2018-12-02T02:07:18.432Z,17.30
2018-12-02T02:08:18.437Z,17.60
2018-12-02T02:09:18.386Z,17.80
2018-12-02T02:10:18.390Z,17.90
2018-12-02T02:11:18.372Z,17.60
2018-12-02T02:12:18.361Z,17.70
2018-12-02T02:13:18.369Z,16.80
2018-12-02T02:14:18.354Z,17.80
2018-12-02T02:15:18.392Z,18.10
2018-12-02T02:16:18.324Z,16.90
2018-12-02T02:17:18.290Z,17.60
2018-12-02T02:18:18.297Z,17.80
2018-12-02T02:19:18.293Z,17.30
2018-12-02T02:20:18.275Z,17.20
2018-12-02T02:21:18.277Z,17.60
2018-12-02T02:22:18.266Z,17.50
2018-12-02T02:23:18.231Z,16.70
2018-12-02T02:24:18.217Z,17.40
2018-12-02T02:25:18.229Z,17.00
2018-12-02T02:26:18.217Z,16.90
2018-12-02T02:27:18.169Z,17.10
2018-12-02T02:28:18.198Z,17.20
2018-12-02T02:29:18.206Z,17.20
2018-12-02T02:30:18.217Z,16.80
2018-12-02T02:31:18.141Z,16.10
2018-12-02T02:32:18.184Z,16.50
2018-12-02T02:33:18.142Z,16.80
2018-12-02T02:34:18.118Z,16.70
2018-12-02T02:35:18.136Z,17.00
2018-12-02T02:36:18.360Z,16.70
2018-12-02T02:37:18.139Z,16.60
2018-12-02T02:38:18.109Z,16.40
2018-12-02T02:39:18.066Z,16.10
2018-12-02T02:40:18.078Z,16.80
2018-12-02T02:41:18.039Z,17.00
2018-12-02T02:42:18.024Z,15.90
2018-12-02T02:43:18.037Z,16.60
2018-12-02T02:44:18.048Z,15.80
2018-12-02T02:45:18.054Z,16.30
2018-12-02T02:46:17.982Z,16.50
2018-12-02T02:47:17.968Z,15.90
2018-12-02T02:48:18.018Z,16.30
2018-12-02T02:49:18.004Z,15.70
2018-12-02T02:50:17.951Z,16.20
2018-12-02T02:51:17.988Z,16.50
2018-12-02T02:52:17.921Z,16.30
2018-12-02T02:53:17.932Z,15.90
2018-12-02T02:54:26.774Z,15.90
2018-12-02T02:55:17.881Z,16.10
2018-12-02T02:56:17.891Z,16.60
2018-12-02T02:57:17.848Z,16.00
2018-12-02T02:58:17.848Z,16.00
2018-12-02T02:59:17.837Z,16.20
2018-12-02T03:00:17.843Z,16.20
2018-12-02T03:01:17.809Z,16.30
2018-12-02T03:02:17.824Z,15.80
2018-12-02T03:03:17.776Z,16.00
2018-12-02T03:04:17.771Z,15.50
2018-12-02T03:05:17.785Z,16.40
2018-12-02T03:06:17.753Z,15.90
2018-12-02T03:07:17.754Z,15.70
2018-12-02T03:08:17.732Z,15.70
2018-12-02T03:09:17.765Z,15.50
2018-12-02T03:10:17.713Z,15.70
2018-12-02T03:11:17.755Z,15.90
2018-12-02T03:12:17.741Z,15.70
2018-12-02T03:13:17.773Z,15.80
2018-12-02T03:14:17.673Z,15.20
2018-12-02T03:15:17.677Z,16.10
2018-12-02T03:16:17.738Z,16.30
2018-12-02T03:17:17.657Z,15.30
2018-12-02T03:18:17.676Z,15.60
2018-12-02T03:19:17.663Z,15.30
2018-12-02T03:20:17.655Z,15.30
2018-12-02T03:21:17.611Z,15.60
2018-12-02T03:22:17.689Z,15.50
2018-12-02T03:23:17.594Z,15.40
2018-12-02T03:24:17.593Z,15.40
2018-12-02T03:25:17.553Z,16.10
2018-12-02T03:26:17.580Z,15.50
2018-12-02T03:27:17.561Z,15.90
2018-12-02T03:28:17.550Z,15.20
2018-12-02T03:29:17.513Z,15.00
2018-12-02T03:30:17.502Z,15.70
2018-12-02T03:31:17.516Z,15.10
2018-12-02T03:32:17.528Z,15.90
2018-12-02T03:33:17.531Z,15.50
2018-12-02T03:34:17.453Z,15.80
2018-12-02T03:35:17.437Z,15.60
2018-12-02T03:36:17.468Z,15.70
2018-12-02T03:37:17.434Z,15.80
2018-12-02T03:38:17.436Z,15.90
2018-12-02T03:39:17.442Z,15.50
2018-12-02T03:40:17.401Z,15.10
2018-12-02T03:41:17.398Z,15.70
2018-12-02T03:42:17.379Z,15.60
2018-12-02T03:43:17.365Z,15.60
2018-12-02T03:44:17.396Z,15.70
2018-12-02T03:45:17.359Z,15.00
2018-12-02T03:46:17.334Z,15.50
2018-12-02T03:47:17.318Z,15.20
2018-12-02T03:48:17.357Z,15.50
2018-12-02T03:49:17.300Z,15.30
2018-12-02T03:50:18.005Z,15.30
2018-12-02T03:51:17.317Z,15.40
2018-12-02T03:52:17.272Z,15.50
2018-12-02T03:53:17.264Z,15.00
2018-12-02T03:54:17.248Z,15.40
2018-12-02T03:55:17.251Z,15.10
2018-12-02T03:56:17.219Z,15.50
2018-12-02T03:57:17.252Z,14.80
2018-12-02T03:58:17.203Z,15.20
2018-12-02T03:59:17.198Z,14.90
2018-12-02T04:00:17.201Z,15.70
2018-12-02T04:01:17.223Z,15.20
2018-12-02T04:02:17.169Z,15.10
2018-12-02T04:03:17.142Z,14.80
2018-12-02T04:04:17.187Z,14.80
2018-12-02T04:05:17.156Z,15.00
2018-12-02T04:06:17.137Z,15.10
2018-12-02T04:07:17.107Z,15.90
2018-12-02T04:08:17.093Z,15.50
2018-12-02T04:09:17.078Z,15.40
2018-12-02T04:10:17.115Z,15.60
2018-12-02T04:11:17.078Z,15.70
2018-12-02T04:12:17.100Z,15.80
2018-12-02T04:13:17.028Z,15.00
2018-12-02T04:14:17.033Z,16.00
2018-12-02T04:15:17.031Z,15.50
2018-12-02T04:16:17.020Z,16.30
2018-12-02T04:17:17.009Z,15.10
2018-12-02T04:18:17.005Z,15.40
2018-12-02T04:19:17.010Z,15.40
2018-12-02T04:20:16.953Z,15.10
2018-12-02T04:21:16.957Z,14.60
2018-12-02T04:22:16.976Z,14.90
2018-12-02T04:23:16.943Z,15.30
2018-12-02T04:24:16.925Z,15.60
2018-12-02T04:25:16.907Z,15.20
2018-12-02T04:26:16.896Z,14.80
2018-12-02T04:27:16.896Z,15.50
2018-12-02T04:28:16.912Z,15.70
2018-12-02T04:29:16.870Z,15.30
2018-12-02T04:30:16.848Z,15.70
2018-12-02T04:31:16.872Z,15.20
2018-12-02T04:32:16.835Z,15.50
2018-12-02T04:33:16.861Z,15.90
2018-12-02T04:34:16.868Z,15.70
2018-12-02T04:35:16.841Z,15.60
2018-12-02T04:36:16.862Z,15.30
2018-12-02T04:37:16.797Z,15.40
2018-12-02T04:38:16.774Z,15.70
2018-12-02T04:39:16.793Z,15.70
2018-12-02T04:40:16.783Z,15.50
2018-12-02T04:41:16.811Z,15.80
2018-12-02T04:42:16.842Z,15.80
2018-12-02T04:43:16.741Z,15.80
2018-12-02T04:44:16.714Z,16.10
2018-12-02T04:45:16.724Z,16.40
2018-12-02T04:46:16.693Z,16.80
2018-12-02T04:47:16.669Z,16.60
2018-12-02T04:48:16.670Z,16.80
2018-12-02T04:49:16.657Z,16.30
2018-12-02T04:50:16.716Z,15.90
2018-12-02T04:51:16.730Z,16.20
2018-12-02T04:52:16.639Z,16.60
2018-12-02T04:53:16.616Z,16.70
2018-12-02T04:54:16.648Z,16.70
2018-12-02T04:55:16.604Z,16.60
2018-12-02T04:56:16.599Z,16.70
2018-12-02T04:57:16.573Z,16.30
2018-12-02T04:58:16.577Z,16.50
2018-12-02T04:59:16.582Z,15.90
2018-12-02T05:00:16.522Z,16.50
2018-12-02T05:01:16.597Z,16.50
2018-12-02T05:02:16.519Z,15.90
2018-12-02T05:03:16.624Z,17.20
2018-12-02T05:04:16.518Z,16.70
2018-12-02T05:05:16.771Z,16.60
2018-12-02T05:06:16.486Z,16.70
2018-12-02T05:07:16.532Z,16.20
2018-12-02T05:08:16.466Z,16.70
2018-12-02T05:09:16.452Z,16.50
2018-12-02T05:10:25.821Z,16.50
2018-12-02T05:11:16.402Z,17.00
2018-12-02T05:12:16.394Z,16.30
2018-12-02T05:13:16.398Z,17.00
2018-12-02T05:14:16.366Z,16.90
2018-12-02T05:15:16.367Z,17.10
2018-12-02T05:16:16.365Z,16.90
2018-12-02T05:17:16.343Z,16.50
2018-12-02T05:18:16.484Z,16.60
2018-12-02T05:19:25.378Z,16.80
2018-12-02T05:20:23.848Z,16.60
2018-12-02T05:21:26.359Z,17.30
2018-12-02T05:22:25.585Z,16.70
2018-12-02T05:23:25.491Z,16.80
2018-12-02T05:24:16.277Z,16.70
2018-12-02T05:25:17.855Z,16.80
2018-12-02T05:26:16.452Z,16.20
2018-12-02T05:27:16.342Z,16.60
2018-12-02T05:28:16.220Z,16.60
2018-12-02T05:29:16.219Z,16.30
2018-12-02T05:30:16.215Z,16.60
2018-12-02T05:31:16.222Z,16.20
2018-12-02T05:32:16.737Z,15.90
2018-12-02T05:33:16.233Z,16.60
2018-12-02T05:34:16.172Z,16.50
2018-12-02T05:35:16.161Z,16.10
2018-12-02T05:36:16.146Z,15.20
2018-12-02T05:37:16.155Z,16.20
2018-12-02T05:38:16.127Z,16.10
2018-12-02T05:39:26.519Z,15.50
2018-12-02T05:40:26.557Z,15.70
2018-12-02T05:41:24.645Z,16.40
2018-12-02T05:42:26.126Z,15.50
2018-12-02T05:43:26.176Z,15.60
2018-12-02T05:44:25.218Z,15.90
2018-12-02T05:45:25.824Z,15.80
2018-12-02T05:46:16.426Z,15.10
2018-12-02T05:47:31.253Z,15.70
2018-12-02T05:48:25.810Z,15.90
2018-12-02T05:49:25.321Z,15.50
2018-12-02T05:50:15.983Z,15.00
2018-12-02T05:51:16.011Z,15.20
2018-12-02T05:52:15.984Z,15.80
2018-12-02T05:53:24.648Z,15.60
2018-12-02T05:54:15.960Z,15.70
2018-12-02T05:55:16.062Z,15.50
2018-12-02T05:56:15.941Z,15.20
2018-12-02T05:57:16.223Z,15.10
2018-12-02T05:58:16.889Z,14.60
2018-12-02T05:59:15.942Z,14.10
2018-12-02T06:00:15.883Z,14.30
2018-12-02T06:01:15.889Z,14.90
2018-12-02T06:02:15.875Z,14.90
2018-12-02T06:03:17.550Z,15.00
2018-12-02T06:04:15.906Z,15.10
2018-12-02T06:05:16.082Z,14.90
2018-12-02T06:06:15.980Z,14.90
2018-12-02T06:07:15.956Z,15.20
2018-12-02T06:08:16.475Z,14.50
2018-12-02T06:09:18.239Z,15.40
2018-12-02T06:10:15.981Z,14.80
2018-12-02T06:11:17.522Z,14.60
2018-12-02T06:12:17.921Z,15.10
2018-12-02T06:13:16.843Z,14.50
2018-12-02T06:14:15.771Z,14.60
2018-12-02T06:15:15.814Z,14.70
2018-12-02T06:16:15.940Z,15.10
2018-12-02T06:17:15.764Z,14.40
2018-12-02T06:18:15.933Z,14.70
2018-12-02T06:19:15.892Z,14.20
2018-12-02T06:20:15.803Z,15.00
2018-12-02T06:21:15.753Z,14.40
2018-12-02T06:22:15.784Z,14.70
2018-12-02T06:23:15.744Z,14.30
2018-12-02T06:24:16.323Z,13.90
2018-12-02T06:25:16.829Z,14.30
2018-12-02T06:26:15.688Z,14.10
2018-12-02T06:27:15.885Z,14.10
2018-12-02T06:28:18.041Z,14.40
2018-12-02T06:29:15.701Z,13.80
2018-12-02T06:30:15.820Z,13.90
2018-12-02T06:31:15.566Z,13.70
2018-12-02T06:32:15.770Z,13.70
2018-12-02T06:33:18.000Z,14.10
2018-12-02T06:34:15.913Z,13.90
2018-12-02T06:35:16.554Z,13.10
2018-12-02T06:36:16.314Z,13.60
2018-12-02T06:37:16.625Z,13.50
2018-12-02T06:38:17.655Z,13.50
2018-12-02T06:39:15.674Z,13.20
2018-12-02T06:40:16.269Z,13.00
2018-12-02T06:41:24.430Z,13.10
2018-12-02T06:42:16.340Z,13.00
2018-12-02T06:44:45.461Z,13.20
2018-12-02T06:45:44.631Z,13.40
2018-12-02T06:46:44.361Z,12.80
2018-12-02T06:47:44.679Z,12.80
2018-12-02T06:48:44.233Z,13.10
2018-12-02T06:49:44.254Z,13.00
2018-12-02T06:50:44.228Z,12.80
2018-12-02T06:51:44.187Z,12.60
2018-12-02T06:52:54.326Z,13.40
2018-12-02T06:53:44.180Z,13.00
2018-12-02T06:54:44.162Z,12.80
2018-12-02T06:55:44.163Z,12.70
2018-12-02T06:56:44.147Z,13.10
2018-12-02T06:57:44.154Z,12.60
2018-12-02T06:58:44.124Z,13.00
2018-12-02T06:59:44.132Z,12.40
2018-12-02T07:00:44.106Z,12.90
2018-12-02T07:01:44.077Z,13.10
2018-12-02T07:02:44.120Z,12.60
2018-12-02T07:03:44.262Z,12.50
2018-12-02T07:04:44.103Z,12.60
2018-12-02T07:05:44.133Z,13.30
2018-12-02T07:06:44.075Z,12.80
2018-12-02T07:07:44.081Z,12.70
2018-12-02T07:08:44.042Z,12.90
2018-12-02T07:09:44.175Z,12.90
2018-12-02T07:10:44.014Z,12.70
2018-12-02T07:11:44.028Z,12.50
2018-12-02T07:12:43.999Z,12.80
2018-12-02T07:13:44.141Z,13.10
2018-12-02T07:14:43.971Z,13.20
2018-12-02T07:15:44.078Z,13.20
2018-12-02T07:16:44.206Z,13.60
2018-12-02T07:17:44.024Z,13.00
2018-12-02T07:18:43.983Z,12.60
2018-12-02T07:19:44.005Z,12.80
2018-12-02T07:20:43.919Z,12.70
2018-12-02T07:21:43.915Z,13.10
2018-12-02T07:22:43.904Z,13.40
2018-12-02T07:23:43.873Z,12.90
2018-12-02T07:24:43.854Z,12.60
2018-12-02T07:25:43.864Z,12.40
2018-12-02T07:26:43.890Z,13.30
2018-12-02T07:27:43.821Z,12.50
2018-12-02T07:28:43.863Z,13.10
2018-12-02T07:29:43.821Z,13.00
2018-12-02T07:30:44.635Z,13.10
2018-12-02T07:31:43.802Z,12.60
2018-12-02T07:32:43.812Z,13.10
2018-12-02T07:33:43.776Z,12.60
2018-12-02T07:34:43.859Z,12.90
2018-12-02T07:35:43.730Z,13.20
2018-12-02T07:36:44.576Z,13.00
2018-12-02T07:37:44.574Z,13.50
2018-12-02T07:38:43.744Z,12.90
2018-12-02T07:39:43.719Z,12.90
2018-12-02T07:40:43.702Z,12.70
2018-12-02T07:41:43.728Z,13.20
2018-12-02T07:42:43.749Z,12.90
2018-12-02T07:43:43.684Z,12.30
2018-12-02T07:44:43.730Z,12.90
2018-12-02T07:45:43.651Z,12.30
2018-12-02T07:46:43.625Z,13.10
2018-12-02T07:47:43.602Z,12.80
2018-12-02T07:48:43.590Z,12.00
2018-12-02T07:49:43.644Z,11.80
2018-12-02T07:50:43.610Z,12.50
2018-12-02T07:51:43.585Z,13.10
2018-12-02T07:52:43.695Z,12.60
2018-12-02T07:53:43.568Z,12.80
2018-12-02T07:54:43.604Z,13.00
2018-12-02T07:55:43.539Z,12.40
2018-12-02T07:56:43.555Z,12.30
2018-12-02T07:57:43.494Z,12.40
2018-12-02T07:58:43.517Z,12.70
2018-12-02T07:59:43.461Z,12.00
2018-12-02T08:00:43.528Z,12.70
2018-12-02T08:01:44.078Z,12.50
2018-12-02T08:02:44.081Z,12.30
2018-12-02T08:03:43.472Z,12.30
2018-12-02T08:04:43.563Z,12.10
2018-12-02T08:05:43.517Z,12.80
2018-12-02T08:06:43.560Z,12.20
2018-12-02T08:07:43.661Z,12.10
2018-12-02T08:08:43.621Z,12.50
2018-12-02T08:09:46.715Z,12.10
2018-12-02T08:10:50.316Z,12.80
2018-12-02T08:11:50.967Z,12.80
2018-12-02T08:12:50.197Z,12.60
2018-12-02T08:13:43.462Z,12.80
2018-12-02T08:14:43.458Z,13.00
2018-12-02T08:15:43.453Z,13.10
2018-12-02T08:16:43.435Z,12.70
2018-12-02T08:17:43.352Z,13.20
2018-12-02T08:18:43.448Z,13.40
2018-12-02T08:19:43.469Z,12.70
2018-12-02T08:20:44.001Z,13.20
2018-12-02T08:21:43.287Z,13.10
2018-12-02T08:22:50.978Z,12.70
2018-12-02T08:23:45.386Z,13.50
2018-12-02T08:24:43.459Z,13.40
2018-12-02T08:25:43.294Z,12.30
2018-12-02T08:26:43.210Z,13.50
2018-12-02T08:27:43.321Z,13.00
2018-12-02T08:28:44.320Z,13.00
2018-12-02T08:29:49.164Z,13.00
2018-12-02T08:30:44.042Z,12.90
2018-12-02T08:31:44.080Z,13.20
2018-12-02T08:32:43.222Z,12.60
2018-12-02T08:33:43.846Z,12.80
2018-12-02T08:34:43.668Z,13.00
2018-12-02T08:35:43.223Z,13.20
2018-12-02T08:36:43.777Z,13.00
2018-12-02T08:37:43.606Z,13.00
2018-12-02T08:38:43.765Z,12.80
2018-12-02T08:39:43.066Z,12.70
2018-12-02T08:40:45.601Z,13.10
2018-12-02T08:42:43.759Z,12.60
2018-12-02T08:43:43.676Z,12.50
2018-12-02T08:44:44.397Z,12.80
2018-12-02T08:45:43.646Z,12.70
2018-12-02T08:46:53.994Z,12.50
2018-12-02T08:47:43.579Z,12.70
2018-12-02T08:48:44.430Z,12.60
2018-12-02T08:51:01.418Z,12.20
2018-12-02T08:52:00.669Z,11.80
2018-12-02T08:53:00.689Z,11.90
2018-12-02T08:54:00.741Z,11.60
2018-12-02T08:55:01.048Z,12.30
2018-12-02T08:56:01.032Z,12.00
2018-12-02T08:57:00.678Z,11.70
2018-12-02T08:58:00.710Z,12.40
2018-12-02T08:59:00.711Z,11.80
2018-12-02T09:01:11.704Z,11.80
2018-12-02T09:02:11.693Z,12.10
2018-12-02T09:03:11.679Z,11.90
2018-12-02T09:04:11.657Z,11.70
2018-12-02T09:05:11.655Z,12.20
2018-12-02T09:06:11.635Z,11.80
2018-12-02T09:07:11.652Z,11.70
2018-12-02T09:08:11.619Z,12.40
2018-12-02T09:09:11.623Z,13.20
2018-12-02T09:10:11.623Z,12.00
2018-12-02T09:11:11.590Z,11.70
2018-12-02T09:12:11.592Z,11.80
2018-12-02T09:13:11.594Z,11.80
2018-12-02T09:14:11.546Z,11.50
2018-12-02T09:15:11.544Z,11.60
2018-12-02T09:16:11.553Z,12.10
2018-12-02T09:17:11.576Z,11.60
2018-12-02T09:18:11.544Z,11.00
2018-12-02T09:19:11.523Z,11.40
2018-12-02T09:20:11.504Z,11.20
2018-12-02T09:21:11.494Z,11.60
2018-12-02T09:22:11.545Z,12.00
2018-12-02T09:23:11.479Z,11.40
2018-12-02T09:24:11.452Z,11.80
2018-12-02T09:25:11.462Z,11.90
2018-12-02T09:26:11.452Z,10.90
2018-12-02T09:27:11.444Z,11.20
2018-12-02T09:28:11.404Z,11.00
2018-12-02T09:29:11.419Z,11.20
2018-12-02T09:30:11.411Z,10.90
2018-12-02T09:31:11.428Z,10.90
2018-12-02T09:32:11.411Z,11.20
2018-12-02T09:33:11.404Z,11.10
2018-12-02T09:34:11.358Z,11.00
2018-12-02T09:35:11.346Z,11.50
2018-12-02T09:36:11.326Z,11.40
2018-12-02T09:37:11.327Z,11.10
2018-12-02T09:38:11.337Z,11.40
2018-12-02T09:39:11.363Z,11.70
2018-12-02T09:40:11.311Z,11.60
2018-12-02T09:41:11.286Z,11.70
2018-12-02T09:42:11.300Z,11.00
2018-12-02T09:43:11.275Z,10.60
2018-12-02T09:44:11.338Z,11.10
2018-12-02T09:45:11.251Z,11.00
2018-12-02T09:46:11.236Z,11.30
2018-12-02T09:47:11.242Z,10.60
2018-12-02T09:48:11.205Z,12.50
2018-12-02T09:49:11.201Z,11.80
2018-12-02T09:50:11.199Z,11.00
2018-12-02T09:51:11.185Z,11.30
2018-12-02T09:52:11.190Z,11.30
2018-12-02T09:53:11.153Z,11.50
2018-12-02T09:54:11.174Z,11.80
2018-12-02T09:55:11.148Z,11.10
2018-12-02T09:56:11.118Z,10.90
2018-12-02T09:57:11.093Z,10.80
2018-12-02T09:58:11.154Z,10.60
2018-12-02T09:59:11.103Z,11.00
2018-12-02T10:00:11.114Z,11.10
2018-12-02T10:01:11.094Z,11.30
2018-12-02T10:02:12.164Z,11.70
2018-12-02T10:03:11.041Z,11.30
2018-12-02T10:04:11.027Z,11.30
2018-12-02T10:05:11.024Z,10.90
2018-12-02T10:06:11.037Z,11.10
2018-12-02T10:07:11.009Z,10.30
2018-12-02T10:08:10.993Z,10.70
2018-12-02T10:09:19.597Z,10.30
2018-12-02T10:10:10.961Z,10.30
2018-12-02T10:11:10.957Z,11.00
2018-12-02T10:12:10.981Z,10.90
2018-12-02T10:13:20.099Z,10.90
2018-12-02T10:14:20.148Z,10.70
2018-12-02T10:15:19.183Z,10.70
2018-12-02T10:16:20.183Z,10.70
2018-12-02T10:17:19.749Z,11.00
2018-12-02T10:18:10.883Z,11.30
2018-12-02T10:19:20.251Z,10.50
2018-12-02T10:20:10.844Z,10.30
2018-12-02T10:21:10.851Z,10.80
2018-12-02T10:22:10.833Z,10.30
2018-12-02T10:23:10.842Z,10.60
2018-12-02T10:24:10.815Z,10.70
2018-12-02T10:25:10.797Z,10.80
2018-12-02T10:26:10.796Z,10.20
2018-12-02T10:27:11.069Z,10.20
2018-12-02T10:28:10.788Z,10.00
2018-12-02T10:29:10.807Z,9.70
2018-12-02T10:30:10.762Z,10.40
2018-12-02T10:31:10.758Z,10.30
2018-12-02T10:32:12.496Z,10.20
2018-12-02T10:33:10.726Z,10.00
2018-12-02T10:34:10.721Z,10.30
2018-12-02T10:35:10.749Z,10.00
2018-12-02T10:36:10.679Z,10.10
2018-12-02T10:37:10.677Z,10.00
2018-12-02T10:38:10.679Z,9.80
2018-12-02T10:39:10.662Z,9.70
2018-12-02T10:40:10.675Z,10.10
2018-12-02T10:41:10.640Z,9.80
2018-12-02T10:42:10.612Z,9.40
2018-12-02T10:43:10.633Z,9.80
2018-12-02T10:44:10.690Z,9.80
2018-12-02T10:45:10.592Z,10.50
2018-12-02T10:46:10.604Z,10.20
2018-12-02T10:47:10.576Z,10.10
2018-12-02T10:48:10.566Z,10.30
2018-12-02T10:49:10.550Z,9.70
2018-12-02T10:50:10.564Z,9.70
2018-12-02T10:51:10.546Z,9.90
2018-12-02T10:52:10.532Z,9.70
2018-12-02T10:53:10.550Z,9.50
2018-12-02T10:54:10.531Z,10.30
2018-12-02T10:55:10.518Z,10.10
2018-12-02T10:56:10.545Z,10.10
2018-12-02T10:57:10.483Z,10.20
2018-12-02T10:58:10.488Z,9.80
2018-12-02T10:59:10.458Z,10.40
2018-12-02T11:00:10.460Z,10.20
2018-12-02T11:01:10.442Z,9.10
2018-12-02T11:02:10.429Z,9.60
2018-12-02T11:03:10.414Z,9.30
2018-12-02T11:04:10.399Z,9.10
2018-12-02T11:05:10.424Z,9.40
2018-12-02T11:06:10.419Z,10.00
2018-12-02T11:07:10.375Z,9.30
2018-12-02T11:08:10.379Z,9.10
2018-12-02T11:09:10.397Z,8.80
2018-12-02T11:10:10.377Z,9.10
2018-12-02T11:11:10.373Z,9.30
2018-12-02T11:12:10.332Z,9.20
2018-12-02T11:13:10.317Z,8.90
2018-12-02T11:14:10.571Z,8.80
2018-12-02T11:15:10.277Z,9.40
2018-12-02T11:16:10.304Z,9.30
2018-12-02T11:17:10.268Z,9.40
2018-12-02T11:18:10.253Z,9.20
2018-12-02T11:19:10.242Z,8.90
2018-12-02T11:20:10.218Z,9.20
2018-12-02T11:21:10.247Z,9.30
2018-12-02T11:22:10.208Z,9.10
2018-12-02T11:23:10.205Z,9.30
2018-12-02T11:24:10.441Z,9.20
2018-12-02T11:25:10.185Z,9.00
2018-12-02T11:26:10.171Z,8.40
2018-12-02T11:27:10.160Z,8.70
2018-12-02T11:28:19.422Z,8.80
2018-12-02T11:29:10.147Z,8.90
2018-12-02T11:30:19.989Z,8.90
2018-12-02T11:31:10.109Z,9.20
2018-12-02T11:32:10.100Z,9.40
2018-12-02T11:33:10.093Z,8.80
2018-12-02T11:34:10.061Z,8.70
2018-12-02T11:35:10.108Z,9.00
2018-12-02T11:36:10.057Z,9.00
2018-12-02T11:37:10.045Z,8.60
2018-12-02T11:38:10.044Z,8.80
2018-12-02T11:39:10.037Z,9.00
2018-12-02T11:40:10.044Z,8.70
2018-12-02T11:41:10.043Z,8.80
2018-12-02T11:42:10.058Z,8.60
2018-12-02T11:43:10.004Z,8.60
2018-12-02T11:44:09.996Z,9.10
2018-12-02T11:45:09.984Z,8.90
2018-12-02T11:46:09.944Z,9.40
2018-12-02T11:47:09.940Z,8.50
2018-12-02T11:48:09.925Z,8.90
2018-12-02T11:49:09.923Z,8.90
2018-12-02T11:50:09.913Z,9.10
2018-12-02T11:51:09.920Z,8.80
2018-12-02T11:52:09.878Z,8.60
2018-12-02T11:53:09.879Z,8.40
2018-12-02T11:54:09.878Z,8.70
2018-12-02T11:55:09.892Z,9.50
2018-12-02T11:56:09.867Z,9.20
2018-12-02T11:57:09.838Z,8.70
2018-12-02T11:58:09.872Z,8.80
2018-12-02T11:59:09.828Z,8.40
2018-12-02T12:00:09.947Z,8.60
2018-12-02T12:01:09.817Z,8.70
2018-12-02T12:02:09.821Z,8.40
2018-12-02T12:03:09.769Z,8.70
2018-12-02T12:04:09.771Z,8.70
2018-12-02T12:05:09.755Z,8.50
2018-12-02T12:06:09.758Z,8.20
2018-12-02T12:07:09.826Z,8.30
2018-12-02T12:08:09.745Z,8.70
2018-12-02T12:09:09.777Z,8.60
2018-12-02T12:10:09.725Z,8.90
2018-12-02T12:11:09.720Z,8.30
2018-12-02T12:12:09.718Z,8.30
2018-12-02T12:13:09.714Z,8.70
2018-12-02T12:14:09.692Z,8.30
2018-12-02T12:15:09.663Z,8.40
2018-12-02T12:16:09.633Z,7.70
2018-12-02T12:17:09.627Z,8.40
2018-12-02T12:18:09.741Z,7.90
2018-12-02T12:19:09.629Z,8.00
2018-12-02T12:20:09.620Z,8.00
2018-12-02T12:21:09.584Z,7.50
2018-12-02T12:22:09.609Z,7.90
2018-12-02T12:23:09.653Z,7.90
2018-12-02T12:24:09.637Z,8.00
2018-12-02T12:25:09.556Z,7.80
2018-12-02T12:26:09.557Z,7.30
2018-12-02T12:27:09.551Z,8.10
2018-12-02T12:28:09.537Z,7.60
2018-12-02T12:29:09.619Z,7.70
2018-12-02T12:30:09.499Z,8.00
2018-12-02T12:31:09.480Z,7.70
2018-12-02T12:32:09.572Z,7.70
2018-12-02T12:33:09.460Z,7.60
2018-12-02T12:34:09.520Z,7.50
2018-12-02T12:35:09.522Z,7.80
2018-12-02T12:36:09.535Z,7.30
2018-12-02T12:37:09.477Z,8.10
2018-12-02T12:38:09.477Z,7.40
2018-12-02T12:39:09.414Z,7.40
2018-12-02T12:40:10.287Z,7.90
2018-12-02T12:41:09.457Z,7.50
2018-12-02T12:42:09.495Z,6.90
2018-12-02T12:43:09.406Z,7.50
2018-12-02T12:44:09.512Z,8.00
2018-12-02T12:45:09.551Z,7.40
2018-12-02T12:46:09.381Z,7.60
2018-12-02T12:47:09.467Z,7.80
2018-12-02T12:48:09.323Z,8.10
2018-12-02T12:49:09.331Z,7.60
2018-12-02T12:50:09.339Z,8.10
2018-12-02T12:51:09.299Z,8.10
2018-12-02T12:52:09.342Z,8.00
2018-12-02T12:53:09.260Z,8.60
2018-12-02T12:54:09.264Z,8.40
2018-12-02T12:55:09.277Z,8.20
2018-12-02T12:56:09.234Z,8.40
2018-12-02T12:57:09.197Z,8.50
2018-12-02T12:58:09.208Z,8.80
2018-12-02T12:59:09.202Z,8.60
2018-12-02T13:00:09.182Z,8.40
2018-12-02T13:01:09.185Z,8.50
2018-12-02T13:02:09.162Z,8.50